sensor_id;sensor_type;location;lat;lon;timestamp;P1;durP1;ratioP1;P2;durP2;ratioP2
72674;SDS011;60752;53.962;9.614;2022-08-19T00:03:06;15.03;;;5.80;;
72674;SDS011;60752;53.962;9.614;2022-08-19T00:08:08;14.35;;;5.45;;
72674;SDS011;60752;53.962;9.614;2022-08-19T00:13:08;15.03;;;6.10;;
72674;SDS011;60752;53.962;9.614;2022-08-19T00:18:09;15.17;;;6.23;;
72674;SDS011;60752;53.962;9.614;2022-08-19T00:23:10;12.77;;;5.73;;
72674;SDS011;60752;53.962;9.614;2022-08-19T00:28:11;14.80;;;5.60;;
72674;SDS011;60752;53.962;9.614;2022-08-19T00:33:11;19.00;;;5.60;;
72674;SDS011;60752;53.962;9.614;2022-08-19T00:38:13;13.13;;;5.80;;
72674;SDS011;60752;53.962;9.614;2022-08-19T00:43:14;11.35;;;5.80;;
72674;SDS011;60752;53.962;9.614;2022-08-19T00:48:19;13.93;;;5.75;;
72674;SDS011;60752;53.962;9.614;2022-08-19T00:53:22;12.57;;;5.47;;
72674;SDS011;60752;53.962;9.614;2022-08-19T00:58:24;13.70;;;6.47;;
72674;SDS011;60752;53.962;9.614;2022-08-19T01:03:28;11.48;;;5.82;;
72674;SDS011;60752;53.962;9.614;2022-08-19T01:08:30;14.87;;;6.10;;
72674;SDS011;60752;53.962;9.614;2022-08-19T01:13:31;17.50;;;6.13;;
72674;SDS011;60752;53.962;9.614;2022-08-19T01:18:35;14.27;;;5.50;;
72674;SDS011;60752;53.962;9.614;2022-08-19T01:23:39;24.77;;;6.30;;
72674;SDS011;60752;53.962;9.614;2022-08-19T01:28:40;16.42;;;6.72;;
72674;SDS011;60752;53.962;9.614;2022-08-19T01:33:42;16.53;;;5.60;;
72674;SDS011;60752;53.962;9.614;2022-08-19T01:38:43;16.50;;;6.32;;
72674;SDS011;60752;53.962;9.614;2022-08-19T01:43:44;17.97;;;6.40;;
72674;SDS011;60752;53.962;9.614;2022-08-19T01:48:45;19.85;;;6.82;;
72674;SDS011;60752;53.962;9.614;2022-08-19T01:53:48;15.20;;;7.17;;
72674;SDS011;60752;53.962;9.614;2022-08-19T01:58:51;24.33;;;8.00;;
72674;SDS011;60752;53.962;9.614;2022-08-19T02:03:55;17.88;;;7.25;;
72674;SDS011;60752;53.962;9.614;2022-08-19T02:08:56;18.43;;;6.90;;
72674;SDS011;60752;53.962;9.614;2022-08-19T02:13:57;20.55;;;7.20;;
72674;SDS011;60752;53.962;9.614;2022-08-19T02:18:58;18.83;;;6.73;;
72674;SDS011;60752;53.962;9.614;2022-08-19T02:24:04;15.18;;;6.72;;
72674;SDS011;60752;53.962;9.614;2022-08-19T02:29:05;20.48;;;7.22;;
72674;SDS011;60752;53.962;9.614;2022-08-19T02:34:05;19.40;;;6.53;;
72674;SDS011;60752;53.962;9.614;2022-08-19T02:39:07;14.43;;;7.30;;
72674;SDS011;60752;53.962;9.614;2022-08-19T02:44:07;15.85;;;7.57;;
72674;SDS011;60752;53.962;9.614;2022-08-19T02:49:08;20.67;;;8.00;;
72674;SDS011;60752;53.962;9.614;2022-08-19T02:54:10;22.33;;;7.97;;
72674;SDS011;60752;53.962;9.614;2022-08-19T02:59:12;19.70;;;8.97;;
72674;SDS011;60752;53.962;9.614;2022-08-19T03:04:13;19.63;;;9.23;;
72674;SDS011;60752;53.962;9.614;2022-08-19T03:09:16;22.47;;;8.10;;
72674;SDS011;60752;53.962;9.614;2022-08-19T03:14:18;20.80;;;8.45;;
72674;SDS011;60752;53.962;9.614;2022-08-19T03:19:19;20.20;;;8.77;;
72674;SDS011;60752;53.962;9.614;2022-08-19T03:24:21;19.38;;;7.97;;
72674;SDS011;60752;53.962;9.614;2022-08-19T03:29:22;18.97;;;8.07;;
72674;SDS011;60752;53.962;9.614;2022-08-19T03:34:24;16.37;;;7.73;;
72674;SDS011;60752;53.962;9.614;2022-08-19T03:39:29;18.50;;;7.30;;
72674;SDS011;60752;53.962;9.614;2022-08-19T03:44:30;20.57;;;8.87;;
72674;SDS011;60752;53.962;9.614;2022-08-19T03:49:31;18.25;;;8.20;;
72674;SDS011;60752;53.962;9.614;2022-08-19T03:54:33;18.17;;;8.00;;
72674;SDS011;60752;53.962;9.614;2022-08-19T03:59:35;17.88;;;7.72;;
72674;SDS011;60752;53.962;9.614;2022-08-19T04:04:37;19.67;;;7.82;;
72674;SDS011;60752;53.962;9.614;2022-08-19T04:09:39;15.23;;;6.73;;
72674;SDS011;60752;53.962;9.614;2022-08-19T04:14:40;14.40;;;7.28;;
72674;SDS011;60752;53.962;9.614;2022-08-19T04:19:40;17.77;;;7.17;;
72674;SDS011;60752;53.962;9.614;2022-08-19T04:24:42;16.93;;;6.97;;
72674;SDS011;60752;53.962;9.614;2022-08-19T04:29:43;15.43;;;7.45;;
72674;SDS011;60752;53.962;9.614;2022-08-19T04:34:43;17.33;;;7.57;;
72674;SDS011;60752;53.962;9.614;2022-08-19T04:39:45;16.93;;;7.77;;
72674;SDS011;60752;53.962;9.614;2022-08-19T04:44:45;17.02;;;7.90;;
72674;SDS011;60752;53.962;9.614;2022-08-19T04:49:45;18.53;;;7.77;;
72674;SDS011;60752;53.962;9.614;2022-08-19T04:54:47;18.43;;;7.77;;
72674;SDS011;60752;53.962;9.614;2022-08-19T04:59:48;18.65;;;8.43;;
72674;SDS011;60752;53.962;9.614;2022-08-19T05:04:48;14.70;;;6.20;;
72674;SDS011;60752;53.962;9.614;2022-08-19T05:09:50;21.17;;;8.00;;
72674;SDS011;60752;53.962;9.614;2022-08-19T05:14:51;18.60;;;8.07;;
72674;SDS011;60752;53.962;9.614;2022-08-19T05:19:51;21.70;;;8.33;;
72674;SDS011;60752;53.962;9.614;2022-08-19T05:24:53;22.57;;;8.07;;
72674;SDS011;60752;53.962;9.614;2022-08-19T05:29:53;21.17;;;8.15;;
72674;SDS011;60752;53.962;9.614;2022-08-19T05:34:54;22.10;;;7.30;;
72674;SDS011;60752;53.962;9.614;2022-08-19T05:39:56;16.80;;;7.32;;
72674;SDS011;60752;53.962;9.614;2022-08-19T05:44:56;23.13;;;8.40;;
72674;SDS011;60752;53.962;9.614;2022-08-19T05:49:58;16.58;;;8.30;;
72674;SDS011;60752;53.962;9.614;2022-08-19T05:54:59;19.37;;;9.03;;
72674;SDS011;60752;53.962;9.614;2022-08-19T06:00:00;15.85;;;8.20;;
72674;SDS011;60752;53.962;9.614;2022-08-19T06:05:00;21.47;;;8.40;;
72674;SDS011;60752;53.962;9.614;2022-08-19T06:10:03;19.27;;;7.47;;
72674;SDS011;60752;53.962;9.614;2022-08-19T06:15:05;17.17;;;7.30;;
72674;SDS011;60752;53.962;9.614;2022-08-19T06:20:09;19.10;;;8.70;;
72674;SDS011;60752;53.962;9.614;2022-08-19T06:25:13;16.20;;;7.23;;
72674;SDS011;60752;53.962;9.614;2022-08-19T06:30:14;19.58;;;7.68;;
72674;SDS011;60752;53.962;9.614;2022-08-19T06:35:14;16.30;;;8.57;;
72674;SDS011;60752;53.962;9.614;2022-08-19T06:40:18;20.10;;;8.60;;
72674;SDS011;60752;53.962;9.614;2022-08-19T06:45:19;22.80;;;9.68;;
72674;SDS011;60752;53.962;9.614;2022-08-19T06:50:19;20.27;;;10.10;;
72674;SDS011;60752;53.962;9.614;2022-08-19T06:55:21;20.17;;;8.83;;
72674;SDS011;60752;53.962;9.614;2022-08-19T07:00:21;21.90;;;9.40;;
72674;SDS011;60752;53.962;9.614;2022-08-19T07:05:22;23.30;;;9.87;;
72674;SDS011;60752;53.962;9.614;2022-08-19T07:10:24;21.23;;;10.77;;
72674;SDS011;60752;53.962;9.614;2022-08-19T07:15:24;21.10;;;10.27;;
72674;SDS011;60752;53.962;9.614;2022-08-19T07:20:25;20.73;;;9.37;;
72674;SDS011;60752;53.962;9.614;2022-08-19T07:25:26;21.20;;;10.77;;
72674;SDS011;60752;53.962;9.614;2022-08-19T07:30:27;20.10;;;10.30;;
72674;SDS011;60752;53.962;9.614;2022-08-19T07:35:27;21.90;;;10.83;;
72674;SDS011;60752;53.962;9.614;2022-08-19T07:40:29;23.17;;;10.40;;
72674;SDS011;60752;53.962;9.614;2022-08-19T07:45:30;22.05;;;10.02;;
72674;SDS011;60752;53.962;9.614;2022-08-19T07:50:31;21.03;;;9.37;;
72674;SDS011;60752;53.962;9.614;2022-08-19T07:55:33;20.07;;;8.90;;
72674;SDS011;60752;53.962;9.614;2022-08-19T08:00:33;18.15;;;9.23;;
72674;SDS011;60752;53.962;9.614;2022-08-19T08:05:34;23.70;;;9.67;;
72674;SDS011;60752;53.962;9.614;2022-08-19T08:10:38;19.87;;;9.50;;
72674;SDS011;60752;53.962;9.614;2022-08-19T08:15:38;15.65;;;8.20;;
72674;SDS011;60752;53.962;9.614;2022-08-19T08:20:39;16.83;;;8.83;;
72674;SDS011;60752;53.962;9.614;2022-08-19T08:25:41;16.87;;;7.90;;
72674;SDS011;60752;53.962;9.614;2022-08-19T08:30:41;18.20;;;8.88;;
72674;SDS011;60752;53.962;9.614;2022-08-19T08:35:43;20.90;;;8.97;;
72674;SDS011;60752;53.962;9.614;2022-08-19T08:40:47;12.85;;;7.22;;
72674;SDS011;60752;53.962;9.614;2022-08-19T08:45:50;14.37;;;7.70;;
72674;SDS011;60752;53.962;9.614;2022-08-19T08:50:55;17.77;;;8.43;;
72674;SDS011;60752;53.962;9.614;2022-08-19T08:55:58;14.10;;;8.35;;
72674;SDS011;60752;53.962;9.614;2022-08-19T09:01:01;14.73;;;7.60;;
72674;SDS011;60752;53.962;9.614;2022-08-19T09:06:03;21.27;;;8.73;;
72674;SDS011;60752;53.962;9.614;2022-08-19T09:11:08;13.70;;;7.33;;
72674;SDS011;60752;53.962;9.614;2022-08-19T09:16:12;13.05;;;6.80;;
72674;SDS011;60752;53.962;9.614;2022-08-19T09:21:15;13.23;;;7.32;;
72674;SDS011;60752;53.962;9.614;2022-08-19T09:26:18;14.20;;;7.73;;
72674;SDS011;60752;53.962;9.614;2022-08-19T09:31:21;18.38;;;9.00;;
72674;SDS011;60752;53.962;9.614;2022-08-19T09:36:23;15.10;;;7.33;;
72674;SDS011;60752;53.962;9.614;2022-08-19T09:41:27;15.38;;;8.15;;
72674;SDS011;60752;53.962;9.614;2022-08-19T09:46:28;15.43;;;7.43;;
72674;SDS011;60752;53.962;9.614;2022-08-19T09:51:29;15.30;;;7.97;;
72674;SDS011;60752;53.962;9.614;2022-08-19T09:56:31;15.30;;;7.60;;
72674;SDS011;60752;53.962;9.614;2022-08-19T10:01:32;13.65;;;7.03;;
72674;SDS011;60752;53.962;9.614;2022-08-19T10:06:33;13.73;;;7.57;;
72674;SDS011;60752;53.962;9.614;2022-08-19T10:11:40;14.77;;;7.40;;
72674;SDS011;60752;53.962;9.614;2022-08-19T10:16:42;14.30;;;7.88;;
72674;SDS011;60752;53.962;9.614;2022-08-19T10:21:43;15.03;;;8.00;;
72674;SDS011;60752;53.962;9.614;2022-08-19T10:26:45;18.23;;;8.47;;
72674;SDS011;60752;53.962;9.614;2022-08-19T10:31:45;18.38;;;8.57;;
72674;SDS011;60752;53.962;9.614;2022-08-19T10:36:45;14.07;;;7.77;;
72674;SDS011;60752;53.962;9.614;2022-08-19T10:41:47;16.97;;;8.73;;
72674;SDS011;60752;53.962;9.614;2022-08-19T10:46:48;18.00;;;8.70;;
72674;SDS011;60752;53.962;9.614;2022-08-19T10:51:48;17.07;;;7.63;;
72674;SDS011;60752;53.962;9.614;2022-08-19T10:56:50;15.77;;;8.40;;
72674;SDS011;60752;53.962;9.614;2022-08-19T11:01:51;18.00;;;8.57;;
72674;SDS011;60752;53.962;9.614;2022-08-19T11:06:51;13.83;;;7.23;;
72674;SDS011;60752;53.962;9.614;2022-08-19T11:11:53;14.77;;;8.00;;
72674;SDS011;60752;53.962;9.614;2022-08-19T11:16:54;15.15;;;7.72;;
72674;SDS011;60752;53.962;9.614;2022-08-19T11:21:58;16.08;;;8.20;;
72674;SDS011;60752;53.962;9.614;2022-08-19T11:27:05;18.63;;;8.00;;
72674;SDS011;60752;53.962;9.614;2022-08-19T11:32:08;16.50;;;7.93;;
72674;SDS011;60752;53.962;9.614;2022-08-19T11:37:10;13.55;;;7.13;;
72674;SDS011;60752;53.962;9.614;2022-08-19T11:42:11;15.37;;;7.47;;
72674;SDS011;60752;53.962;9.614;2022-08-19T11:47:12;13.47;;;7.53;;
72674;SDS011;60752;53.962;9.614;2022-08-19T11:52:12;13.80;;;7.73;;
72674;SDS011;60752;53.962;9.614;2022-08-19T11:57:14;14.10;;;8.63;;
72674;SDS011;60752;53.962;9.614;2022-08-19T12:02:14;11.17;;;6.33;;
72674;SDS011;60752;53.962;9.614;2022-08-19T12:07:15;15.97;;;8.10;;
72674;SDS011;60752;53.962;9.614;2022-08-19T12:12:17;12.93;;;5.60;;
72674;SDS011;60752;53.962;9.614;2022-08-19T12:17:17;11.82;;;6.28;;
72674;SDS011;60752;53.962;9.614;2022-08-19T12:22:20;13.43;;;6.45;;
72674;SDS011;60752;53.962;9.614;2022-08-19T12:27:22;9.90;;;6.47;;
72674;SDS011;60752;53.962;9.614;2022-08-19T12:32:23;10.65;;;6.20;;
72674;SDS011;60752;53.962;9.614;2022-08-19T12:37:23;10.03;;;6.27;;
72674;SDS011;60752;53.962;9.614;2022-08-19T12:42:25;13.07;;;6.60;;
72674;SDS011;60752;53.962;9.614;2022-08-19T12:47:25;10.50;;;6.05;;
72674;SDS011;60752;53.962;9.614;2022-08-19T12:52:26;13.90;;;6.23;;
72674;SDS011;60752;53.962;9.614;2022-08-19T12:57:28;13.43;;;7.00;;
72674;SDS011;60752;53.962;9.614;2022-08-19T13:02:29;14.00;;;7.85;;
72674;SDS011;60752;53.962;9.614;2022-08-19T13:07:31;11.33;;;7.10;;
72674;SDS011;60752;53.962;9.614;2022-08-19T13:12:32;20.95;;;9.50;;
72674;SDS011;60752;53.962;9.614;2022-08-19T13:17:33;16.10;;;9.23;;
72674;SDS011;60752;53.962;9.614;2022-08-19T13:22:34;19.90;;;10.35;;
72674;SDS011;60752;53.962;9.614;2022-08-19T13:27:36;14.30;;;9.83;;
72674;SDS011;60752;53.962;9.614;2022-08-19T13:32:37;18.20;;;10.65;;
72674;SDS011;60752;53.962;9.614;2022-08-19T13:37:38;17.17;;;10.83;;
72674;SDS011;60752;53.962;9.614;2022-08-19T13:42:40;13.67;;;8.83;;
72674;SDS011;60752;53.962;9.614;2022-08-19T13:47:41;14.60;;;10.10;;
72674;SDS011;60752;53.962;9.614;2022-08-19T13:52:41;17.10;;;8.10;;
72674;SDS011;60752;53.962;9.614;2022-08-19T13:57:44;14.52;;;9.02;;
72674;SDS011;60752;53.962;9.614;2022-08-19T14:02:45;15.57;;;10.00;;
72674;SDS011;60752;53.962;9.614;2022-08-19T14:07:46;12.40;;;9.02;;
72674;SDS011;60752;53.962;9.614;2022-08-19T14:12:49;14.83;;;9.33;;
72674;SDS011;60752;53.962;9.614;2022-08-19T14:17:53;15.82;;;10.05;;
72674;SDS011;60752;53.962;9.614;2022-08-19T14:22:53;18.50;;;10.37;;
72674;SDS011;60752;53.962;9.614;2022-08-19T14:27:56;13.27;;;9.55;;
72674;SDS011;60752;53.962;9.614;2022-08-19T14:32:58;15.20;;;8.65;;
72674;SDS011;60752;53.962;9.614;2022-08-19T14:38:00;12.47;;;8.40;;
72674;SDS011;60752;53.962;9.614;2022-08-19T14:43:03;17.48;;;9.13;;
72674;SDS011;60752;53.962;9.614;2022-08-19T14:48:04;15.60;;;9.02;;
72674;SDS011;60752;53.962;9.614;2022-08-19T14:53:06;14.00;;;8.47;;
72674;SDS011;60752;53.962;9.614;2022-08-19T14:58:09;13.13;;;8.68;;
72674;SDS011;60752;53.962;9.614;2022-08-19T15:03:10;13.82;;;9.38;;
72674;SDS011;60752;53.962;9.614;2022-08-19T15:08:10;16.33;;;10.13;;
72674;SDS011;60752;53.962;9.614;2022-08-19T15:13:12;16.03;;;10.97;;
72674;SDS011;60752;53.962;9.614;2022-08-19T15:18:12;16.38;;;10.35;;
72674;SDS011;60752;53.962;9.614;2022-08-19T15:23:13;18.90;;;11.90;;
72674;SDS011;60752;53.962;9.614;2022-08-19T15:28:15;19.17;;;11.87;;
72674;SDS011;60752;53.962;9.614;2022-08-19T15:33:16;17.15;;;11.05;;
72674;SDS011;60752;53.962;9.614;2022-08-19T15:38:16;15.18;;;10.57;;
72674;SDS011;60752;53.962;9.614;2022-08-19T15:43:19;15.53;;;9.93;;
72674;SDS011;60752;53.962;9.614;2022-08-19T15:48:19;15.18;;;9.80;;
72674;SDS011;60752;53.962;9.614;2022-08-19T15:53:20;15.40;;;8.87;;
72674;SDS011;60752;53.962;9.614;2022-08-19T15:58:22;13.10;;;8.03;;
72674;SDS011;60752;53.962;9.614;2022-08-19T16:03:22;12.95;;;7.28;;
72674;SDS011;60752;53.962;9.614;2022-08-19T16:08:23;9.53;;;6.47;;
72674;SDS011;60752;53.962;9.614;2022-08-19T16:13:25;13.40;;;7.17;;
72674;SDS011;60752;53.962;9.614;2022-08-19T16:18:25;10.32;;;6.43;;
72674;SDS011;60752;53.962;9.614;2022-08-19T16:23:25;9.43;;;6.27;;
72674;SDS011;60752;53.962;9.614;2022-08-19T16:28:27;10.80;;;7.83;;
72674;SDS011;60752;53.962;9.614;2022-08-19T16:33:28;12.90;;;7.93;;
72674;SDS011;60752;53.962;9.614;2022-08-19T16:38:28;11.00;;;7.67;;
72674;SDS011;60752;53.962;9.614;2022-08-19T16:43:30;13.20;;;8.23;;
72674;SDS011;60752;53.962;9.614;2022-08-19T16:48:31;10.38;;;7.15;;
72674;SDS011;60752;53.962;9.614;2022-08-19T16:53:31;12.70;;;8.37;;
72674;SDS011;60752;53.962;9.614;2022-08-19T16:58:33;12.13;;;7.77;;
72674;SDS011;60752;53.962;9.614;2022-08-19T17:03:34;15.10;;;8.87;;
72674;SDS011;60752;53.962;9.614;2022-08-19T17:08:35;15.80;;;9.13;;
72674;SDS011;60752;53.962;9.614;2022-08-19T17:13:37;12.17;;;7.80;;
72674;SDS011;60752;53.962;9.614;2022-08-19T17:18:38;11.30;;;7.40;;
72674;SDS011;60752;53.962;9.614;2022-08-19T17:23:38;11.57;;;7.73;;
72674;SDS011;60752;53.962;9.614;2022-08-19T17:28:41;11.30;;;7.03;;
72674;SDS011;60752;53.962;9.614;2022-08-19T17:33:41;12.77;;;7.30;;
72674;SDS011;60752;53.962;9.614;2022-08-19T17:38:42;10.33;;;7.63;;
72674;SDS011;60752;53.962;9.614;2022-08-19T17:43:44;9.60;;;7.07;;
72674;SDS011;60752;53.962;9.614;2022-08-19T17:48:45;12.07;;;7.07;;
72674;SDS011;60752;53.962;9.614;2022-08-19T17:53:46;8.95;;;6.05;;
72674;SDS011;60752;53.962;9.614;2022-08-19T17:58:49;8.20;;;5.30;;
72674;SDS011;60752;53.962;9.614;2022-08-19T18:03:50;7.70;;;5.00;;
72674;SDS011;60752;53.962;9.614;2022-08-19T18:08:50;6.87;;;4.90;;
72674;SDS011;60752;53.962;9.614;2022-08-19T18:13:52;8.83;;;4.97;;
72674;SDS011;60752;53.962;9.614;2022-08-19T18:18:52;7.20;;;4.88;;
72674;SDS011;60752;53.962;9.614;2022-08-19T18:23:53;7.70;;;4.80;;
72674;SDS011;60752;53.962;9.614;2022-08-19T18:28:54;8.10;;;4.60;;
72674;SDS011;60752;53.962;9.614;2022-08-19T18:33:55;6.75;;;4.55;;
72674;SDS011;60752;53.962;9.614;2022-08-19T18:38:55;9.27;;;5.30;;
72674;SDS011;60752;53.962;9.614;2022-08-19T18:43:57;8.10;;;4.83;;
72674;SDS011;60752;53.962;9.614;2022-08-19T18:48:57;7.95;;;4.97;;
72674;SDS011;60752;53.962;9.614;2022-08-19T18:53:58;6.77;;;4.33;;
72674;SDS011;60752;53.962;9.614;2022-08-19T18:59:00;9.73;;;4.80;;
72674;SDS011;60752;53.962;9.614;2022-08-19T19:04:01;7.20;;;4.30;;
72674;SDS011;60752;53.962;9.614;2022-08-19T19:09:03;6.10;;;4.10;;
72674;SDS011;60752;53.962;9.614;2022-08-19T19:14:07;8.30;;;4.40;;
72674;SDS011;60752;53.962;9.614;2022-08-19T19:19:10;6.50;;;4.10;;
72674;SDS011;60752;53.962;9.614;2022-08-19T19:24:11;8.45;;;3.60;;
72674;SDS011;60752;53.962;9.614;2022-08-19T19:29:14;8.67;;;3.43;;
72674;SDS011;60752;53.962;9.614;2022-08-19T19:34:16;6.78;;;3.50;;
72674;SDS011;60752;53.962;9.614;2022-08-19T19:39:19;6.68;;;3.42;;
72674;SDS011;60752;53.962;9.614;2022-08-19T19:44:24;8.60;;;3.67;;
72674;SDS011;60752;53.962;9.614;2022-08-19T19:49:24;7.90;;;3.75;;
72674;SDS011;60752;53.962;9.614;2022-08-19T19:54:25;6.63;;;3.20;;
72674;SDS011;60752;53.962;9.614;2022-08-19T19:59:27;6.70;;;3.40;;
72674;SDS011;60752;53.962;9.614;2022-08-19T20:04:27;6.40;;;3.20;;
72674;SDS011;60752;53.962;9.614;2022-08-19T20:09:28;5.10;;;2.83;;
72674;SDS011;60752;53.962;9.614;2022-08-19T20:14:30;6.17;;;3.47;;
72674;SDS011;60752;53.962;9.614;2022-08-19T20:19:32;6.40;;;3.38;;
72674;SDS011;60752;53.962;9.614;2022-08-19T20:24:33;6.10;;;3.67;;
72674;SDS011;60752;53.962;9.614;2022-08-19T20:29:35;6.05;;;3.30;;
72674;SDS011;60752;53.962;9.614;2022-08-19T20:34:36;7.63;;;3.95;;
72674;SDS011;60752;53.962;9.614;2022-08-19T20:39:36;6.13;;;3.40;;
72674;SDS011;60752;53.962;9.614;2022-08-19T20:44:38;6.00;;;3.10;;
72674;SDS011;60752;53.962;9.614;2022-08-19T20:49:38;6.22;;;3.20;;
72674;SDS011;60752;53.962;9.614;2022-08-19T20:54:39;5.77;;;3.10;;
72674;SDS011;60752;53.962;9.614;2022-08-19T20:59:41;5.30;;;3.13;;
72674;SDS011;60752;53.962;9.614;2022-08-19T21:04:41;5.82;;;3.17;;
72674;SDS011;60752;53.962;9.614;2022-08-19T21:09:42;6.77;;;4.10;;
72674;SDS011;60752;53.962;9.614;2022-08-19T21:14:44;6.10;;;3.57;;
72674;SDS011;60752;53.962;9.614;2022-08-19T21:19:45;6.87;;;4.07;;
72674;SDS011;60752;53.962;9.614;2022-08-19T21:24:45;7.67;;;4.23;;
72674;SDS011;60752;53.962;9.614;2022-08-19T21:29:47;6.00;;;3.30;;
72674;SDS011;60752;53.962;9.614;2022-08-19T21:34:47;6.85;;;3.53;;
72674;SDS011;60752;53.962;9.614;2022-08-19T21:39:48;5.97;;;3.30;;
72674;SDS011;60752;53.962;9.614;2022-08-19T21:44:50;8.83;;;3.80;;
72674;SDS011;60752;53.962;9.614;2022-08-19T21:49:50;6.40;;;3.70;;
72674;SDS011;60752;53.962;9.614;2022-08-19T21:54:54;7.83;;;3.80;;
72674;SDS011;60752;53.962;9.614;2022-08-19T21:59:56;7.60;;;4.03;;
72674;SDS011;60752;53.962;9.614;2022-08-19T22:04:56;8.80;;;4.07;;
72674;SDS011;60752;53.962;9.614;2022-08-19T22:09:57;6.97;;;3.43;;
72674;SDS011;60752;53.962;9.614;2022-08-19T22:14:59;7.97;;;3.80;;
72674;SDS011;60752;53.962;9.614;2022-08-19T22:20:00;7.50;;;3.73;;
72674;SDS011;60752;53.962;9.614;2022-08-19T22:25:04;7.13;;;3.70;;
72674;SDS011;60752;53.962;9.614;2022-08-19T22:30:10;7.13;;;3.75;;
72674;SDS011;60752;53.962;9.614;2022-08-19T22:35:14;6.93;;;3.60;;
72674;SDS011;60752;53.962;9.614;2022-08-19T22:40:19;5.78;;;3.53;;
72674;SDS011;60752;53.962;9.614;2022-08-19T22:45:21;6.72;;;3.13;;
72674;SDS011;60752;53.962;9.614;2022-08-19T22:50:22;5.87;;;3.20;;
72674;SDS011;60752;53.962;9.614;2022-08-19T22:55:23;6.27;;;3.60;;
72674;SDS011;60752;53.962;9.614;2022-08-19T23:00:26;6.35;;;3.17;;
72674;SDS011;60752;53.962;9.614;2022-08-19T23:05:27;6.50;;;3.63;;
72674;SDS011;60752;53.962;9.614;2022-08-19T23:10:29;7.00;;;3.83;;
72674;SDS011;60752;53.962;9.614;2022-08-19T23:15:31;8.33;;;4.30;;
72674;SDS011;60752;53.962;9.614;2022-08-19T23:20:34;9.63;;;3.50;;
72674;SDS011;60752;53.962;9.614;2022-08-19T23:25:36;9.35;;;3.55;;
72674;SDS011;60752;53.962;9.614;2022-08-19T23:30:39;6.53;;;3.50;;
72674;SDS011;60752;53.962;9.614;2022-08-19T23:35:41;7.65;;;3.25;;
72674;SDS011;60752;53.962;9.614;2022-08-19T23:40:41;6.07;;;2.73;;
72674;SDS011;60752;53.962;9.614;2022-08-19T23:45:43;7.43;;;3.17;;
72674;SDS011;60752;53.962;9.614;2022-08-19T23:50:44;5.80;;;3.00;;
72674;SDS011;60752;53.962;9.614;2022-08-19T23:55:46;6.20;;;3.30;;
